アンマン の空港の天気 - METARとTAF

クィーンアリア国際空港 ( OJAI / AMM ) - ヨルダン アンマン
飛行場実況気象(Metar)
観測時間07/15 13:00 EEST (07/15 10:00 UTC)
風向・風速西北西 3m/s
視程6000m
天気現象
なし
気温35℃
湿度22%
気圧1013hPa
METAROJAI 151000Z 30005KT 6000 NSC 35/10 Q1013 NOSIG
過去の天気等 Google飛行場航空写真 Wunderground天気予報

過去48時間のMETAR

飛行場予報(TAF)
発表時間: 7/15 07:53 EEST (7/15 04:53 UTC)
予報対象時間: 15日9時 EEST ~ 16日15時 EEST
風向・風速北西 7m/s
視程5000m
天気現象煙霧
なし
TAF OJAI 150453Z 1506/1612 31014KT 5000 HZ NSC